createdAt,value
2023-03-06T00:00:05.510Z,1.25
2023-03-06T00:00:34.396Z,1.25
2023-03-06T00:01:08.890Z,1.10
2023-03-06T00:01:34.395Z,1.10
2023-03-06T00:01:56.892Z,1.10
2023-03-06T00:02:29.563Z,1.10
2023-03-06T00:03:00.912Z,1.10
2023-03-06T00:03:34.515Z,1.10
2023-03-06T00:04:04.886Z,1.10
2023-03-06T00:04:35.139Z,1.10
2023-03-06T00:04:52.885Z,1.10
2023-03-06T00:05:25.098Z,1.10
2023-03-06T00:05:42.888Z,1.10
2023-03-06T00:06:12.932Z,1.10
2023-03-06T00:06:34.377Z,1.10
2023-03-06T00:07:00.910Z,1.10
2023-03-06T00:07:32.881Z,1.10
2023-03-06T00:08:05.616Z,1.10
2023-03-06T00:08:34.616Z,1.10
2023-03-06T00:08:52.865Z,1.10
2023-03-06T00:09:24.899Z,1.10
2023-03-06T00:09:42.021Z,1.10
2023-03-06T00:10:13.819Z,1.10
2023-03-06T00:10:34.381Z,1.10
2023-03-06T00:11:00.923Z,1.10
2023-03-06T00:11:32.909Z,1.10
2023-03-06T00:12:04.863Z,1.10
2023-03-06T00:12:34.451Z,1.10
2023-03-06T00:12:52.937Z,1.10
2023-03-06T00:13:25.624Z,1.10
2023-03-06T00:13:42.491Z,1.10
2023-03-06T00:14:29.720Z,1.10
2023-03-06T00:15:01.143Z,1.10
2023-03-06T00:15:33.675Z,1.10
2023-03-06T00:16:04.948Z,1.10
2023-03-06T00:16:35.239Z,1.10
2023-03-06T00:16:52.830Z,1.10
2023-03-06T00:17:34.410Z,1.10
2023-03-06T00:17:56.850Z,1.10
2023-03-06T00:18:28.858Z,1.10
2023-03-06T00:19:00.888Z,1.10
2023-03-06T00:19:32.854Z,1.10
2023-03-06T00:20:05.786Z,1.10
2023-03-06T00:20:34.427Z,1.10
2023-03-06T00:20:53.028Z,1.10
2023-03-06T00:21:24.865Z,1.10
2023-03-06T00:21:42.003Z,1.10
2023-03-06T00:22:13.616Z,1.10
2023-03-06T00:22:34.411Z,1.10
2023-03-06T00:23:01.011Z,1.10
2023-03-06T00:23:32.860Z,1.10
2023-03-06T00:24:04.893Z,1.10
2023-03-06T00:24:34.443Z,1.10
2023-03-06T00:24:52.832Z,1.10
2023-03-06T00:25:25.890Z,1.10
2023-03-06T00:25:57.886Z,1.10
2023-03-06T00:26:29.789Z,1.10
2023-03-06T00:27:00.965Z,1.10
2023-03-06T00:27:33.559Z,1.10
2023-03-06T00:28:04.885Z,1.10
2023-03-06T00:28:35.519Z,1.10
2023-03-06T00:28:52.844Z,1.10
2023-03-06T00:29:24.902Z,1.10
2023-03-06T00:29:42.846Z,1.10
2023-03-06T00:30:13.043Z,1.10
2023-03-06T00:30:34.408Z,1.10
2023-03-06T00:31:00.988Z,1.10
2023-03-06T00:31:32.950Z,1.10
2023-03-06T00:32:05.695Z,1.10
2023-03-06T00:32:34.457Z,1.10
2023-03-06T00:32:52.871Z,1.10
2023-03-06T00:33:24.902Z,1.10
2023-03-06T00:33:41.986Z,1.10
2023-03-06T00:34:13.680Z,1.10
2023-03-06T00:34:34.399Z,1.10
2023-03-06T00:35:01.007Z,1.10
2023-03-06T00:35:32.935Z,1.10
2023-03-06T00:36:04.892Z,1.10
2023-03-06T00:36:34.397Z,1.10
2023-03-06T00:36:52.883Z,1.10
2023-03-06T00:37:25.558Z,1.10
2023-03-06T00:37:42.511Z,1.10
2023-03-06T00:38:12.857Z,1.10
2023-03-06T00:38:34.605Z,1.10
2023-03-06T00:39:00.948Z,1.10
2023-03-06T00:39:33.568Z,1.10
2023-03-06T00:40:05.055Z,1.10
2023-03-06T00:40:35.285Z,1.10
2023-03-06T00:40:52.985Z,1.10
2023-03-06T00:41:24.972Z,1.10
2023-03-06T00:41:43.456Z,1.10
2023-03-06T00:42:12.884Z,1.10
2023-03-06T00:42:34.405Z,1.10
2023-03-06T00:43:00.900Z,1.21
2023-03-06T00:43:32.870Z,1.21
2023-03-06T00:44:05.843Z,1.21
2023-03-06T00:44:34.418Z,1.21
2023-03-06T00:44:52.869Z,1.21
2023-03-06T00:45:25.253Z,1.21
2023-03-06T00:45:42.091Z,1.21
2023-03-06T00:46:13.662Z,1.21
2023-03-06T00:46:34.414Z,1.21
2023-03-06T00:47:00.921Z,1.10
2023-03-06T00:47:32.884Z,1.10
2023-03-06T00:48:04.926Z,1.21
2023-03-06T00:48:34.439Z,1.21
2023-03-06T00:48:52.865Z,1.21
2023-03-06T00:49:25.708Z,1.21
2023-03-06T00:49:42.260Z,1.21
2023-03-06T00:50:13.034Z,1.21
2023-03-06T00:50:35.263Z,1.21
2023-03-06T00:51:00.922Z,1.21
2023-03-06T00:51:32.909Z,1.21
2023-03-06T00:52:04.892Z,1.21
2023-03-06T00:52:34.909Z,1.21
2023-03-06T00:52:53.708Z,1.21
2023-03-06T00:53:24.878Z,1.21
2023-03-06T00:53:42.039Z,1.21
2023-03-06T00:54:12.853Z,1.21
2023-03-06T00:54:34.400Z,1.21
2023-03-06T00:55:02.090Z,1.21
2023-03-06T00:55:32.903Z,1.21
2023-03-06T00:56:05.702Z,1.21
2023-03-06T00:56:35.026Z,1.21
2023-03-06T00:56:52.845Z,1.21
2023-03-06T00:57:24.927Z,1.21
2023-03-06T00:57:42.068Z,1.21
2023-03-06T00:58:13.746Z,1.21
2023-03-06T00:58:34.417Z,1.21
2023-03-06T00:59:00.884Z,1.21
2023-03-06T00:59:32.900Z,1.21
2023-03-06T01:00:05.261Z,1.21
2023-03-06T01:00:34.423Z,1.21
2023-03-06T01:00:53.558Z,1.21
2023-03-06T01:01:25.642Z,1.21
2023-03-06T01:01:57.848Z,1.21
2023-03-06T01:02:29.778Z,1.21
2023-03-06T01:03:00.890Z,1.21
2023-03-06T01:03:33.594Z,1.21
2023-03-06T01:04:04.878Z,1.21
2023-03-06T01:04:35.248Z,1.21
2023-03-06T01:04:52.821Z,1.21
2023-03-06T01:05:25.083Z,1.21
2023-03-06T01:05:42.807Z,1.21
2023-03-06T01:06:12.866Z,1.21
2023-03-06T01:06:34.946Z,1.07
2023-03-06T01:07:00.936Z,1.07
2023-03-06T01:07:33.389Z,1.07
2023-03-06T01:08:05.667Z,1.07
2023-03-06T01:08:34.381Z,1.07
2023-03-06T01:08:52.903Z,1.07
2023-03-06T01:09:24.898Z,1.07
2023-03-06T01:09:42.068Z,1.07
2023-03-06T01:10:13.875Z,1.07
2023-03-06T01:10:34.444Z,1.07
2023-03-06T01:11:00.948Z,1.07
2023-03-06T01:11:32.887Z,1.07
2023-03-06T01:12:04.905Z,1.07
2023-03-06T01:12:34.412Z,1.07
2023-03-06T01:12:52.905Z,1.07
2023-03-06T01:13:25.621Z,1.07
2023-03-06T01:13:42.482Z,1.07
2023-03-06T01:14:12.904Z,1.07
2023-03-06T01:14:34.386Z,1.07
2023-03-06T01:15:01.167Z,1.07
2023-03-06T01:15:33.575Z,1.07
2023-03-06T01:16:04.919Z,1.07
2023-03-06T01:16:35.665Z,1.07
2023-03-06T01:16:52.908Z,1.07
2023-03-06T01:17:24.937Z,1.07
2023-03-06T01:17:42.822Z,1.07
2023-03-06T01:18:12.889Z,1.07
2023-03-06T01:18:34.452Z,1.07
2023-03-06T01:19:00.883Z,1.07
2023-03-06T01:19:32.872Z,1.07
2023-03-06T01:20:05.937Z,1.07
2023-03-06T01:20:34.448Z,1.07
2023-03-06T01:20:53.093Z,1.07
2023-03-06T01:21:24.815Z,1.07
2023-03-06T01:21:42.091Z,1.07
2023-03-06T01:22:13.710Z,1.07
2023-03-06T01:22:34.424Z,1.07
2023-03-06T01:23:00.925Z,1.07
2023-03-06T01:23:32.930Z,1.07
2023-03-06T01:24:04.900Z,1.07
2023-03-06T01:24:34.417Z,1.07
2023-03-06T01:24:52.915Z,1.07
2023-03-06T01:25:25.849Z,1.07
2023-03-06T01:25:42.203Z,1.07
2023-03-06T01:26:12.981Z,1.21
2023-03-06T01:26:34.437Z,1.21
2023-03-06T01:27:00.970Z,1.07
2023-03-06T01:27:33.570Z,1.21
2023-03-06T01:28:04.933Z,1.07
2023-03-06T01:28:35.264Z,1.07
2023-03-06T01:28:52.895Z,1.21
2023-03-06T01:29:24.929Z,1.21
2023-03-06T01:29:57.679Z,1.21
2023-03-06T01:30:29.158Z,1.21
2023-03-06T01:31:01.711Z,1.07
2023-03-06T01:31:32.972Z,1.21
2023-03-06T01:32:05.971Z,1.21
2023-03-06T01:32:34.439Z,1.07
2023-03-06T01:32:52.877Z,1.07
2023-03-06T01:33:25.112Z,1.07
2023-03-06T01:33:42.153Z,1.07
2023-03-06T01:34:13.785Z,1.07
2023-03-06T01:34:34.556Z,1.07
2023-03-06T01:35:00.981Z,1.07
2023-03-06T01:35:33.357Z,1.07
2023-03-06T01:36:04.888Z,1.07
2023-03-06T01:36:34.418Z,1.07
2023-03-06T01:36:52.883Z,1.07
2023-03-06T01:37:25.753Z,1.07
2023-03-06T01:37:42.300Z,1.07
2023-03-06T01:38:12.851Z,1.07
2023-03-06T01:38:34.428Z,1.07
2023-03-06T01:39:00.904Z,1.07
2023-03-06T01:39:33.603Z,1.07
2023-03-06T01:40:05.030Z,1.07
2023-03-06T01:40:35.227Z,1.07
2023-03-06T01:40:53.007Z,1.07
2023-03-06T01:41:24.931Z,1.07
2023-03-06T01:41:42.783Z,1.07
2023-03-06T01:42:12.871Z,1.07
2023-03-06T01:42:35.043Z,1.07
2023-03-06T01:43:00.947Z,1.07
2023-03-06T01:43:33.284Z,1.07
2023-03-06T01:44:05.835Z,1.07
2023-03-06T01:44:34.409Z,1.07
2023-03-06T01:44:52.929Z,1.07
2023-03-06T01:45:25.085Z,1.07
2023-03-06T01:45:42.145Z,1.07
2023-03-06T01:46:13.824Z,1.07
2023-03-06T01:46:34.426Z,1.07
2023-03-06T01:47:00.895Z,1.07
2023-03-06T01:47:33.278Z,1.07
2023-03-06T01:48:05.655Z,1.07
2023-03-06T01:48:34.429Z,1.07
2023-03-06T01:48:52.899Z,1.07
2023-03-06T01:49:25.750Z,1.07
2023-03-06T01:49:42.250Z,1.07
2023-03-06T01:50:13.008Z,1.07
2023-03-06T01:50:34.418Z,1.07
2023-03-06T01:51:00.923Z,1.07
2023-03-06T01:51:33.708Z,1.07
2023-03-06T01:52:04.891Z,1.12
2023-03-06T01:52:35.251Z,1.12
2023-03-06T01:52:52.904Z,1.07
2023-03-06T01:53:24.934Z,1.07
2023-03-06T01:53:42.802Z,1.07
2023-03-06T01:54:12.930Z,1.07
2023-03-06T01:54:34.440Z,1.07
2023-03-06T01:55:01.072Z,1.07
2023-03-06T01:55:32.911Z,1.07
2023-03-06T01:56:05.568Z,1.12
2023-03-06T01:56:34.439Z,1.12
2023-03-06T01:56:52.905Z,1.12
2023-03-06T01:57:24.907Z,1.12
2023-03-06T01:57:42.031Z,1.12
2023-03-06T01:58:13.720Z,1.12
2023-03-06T01:58:35.098Z,1.12
2023-03-06T01:59:00.933Z,1.12
2023-03-06T01:59:34.323Z,1.12
2023-03-06T02:00:05.245Z,1.12
2023-03-06T02:00:35.446Z,1.12
2023-03-06T02:00:53.045Z,1.07
2023-03-06T02:01:25.017Z,1.07
2023-03-06T02:01:42.786Z,1.07
2023-03-06T02:02:12.942Z,1.12
2023-03-06T02:02:34.731Z,1.12
2023-03-06T02:03:00.935Z,1.12
2023-03-06T02:03:33.117Z,1.12
2023-03-06T02:04:21.719Z,1.12
2023-03-06T02:04:38.843Z,1.12
2023-03-06T02:05:09.103Z,1.12
2023-03-06T02:05:34.417Z,1.12
2023-03-06T02:05:57.107Z,1.12
2023-03-06T02:06:29.940Z,1.12
2023-03-06T02:07:00.945Z,1.12
2023-03-06T02:07:33.858Z,1.12
2023-03-06T02:08:05.032Z,1.12
2023-03-06T02:08:35.347Z,1.12
2023-03-06T02:08:52.871Z,1.12
2023-03-06T02:09:25.292Z,1.12
2023-03-06T02:09:43.113Z,1.12
2023-03-06T02:10:12.974Z,1.12
2023-03-06T02:10:34.430Z,1.12
2023-03-06T02:11:00.935Z,1.12
2023-03-06T02:11:33.026Z,1.12
2023-03-06T02:12:05.672Z,1.12
2023-03-06T02:12:34.914Z,1.12
2023-03-06T02:12:52.971Z,1.12
2023-03-06T02:13:24.905Z,1.12
2023-03-06T02:13:42.108Z,1.12
2023-03-06T02:14:13.718Z,1.12
2023-03-06T02:14:34.460Z,1.12
2023-03-06T02:15:01.174Z,1.12
2023-03-06T02:15:32.918Z,1.12
2023-03-06T02:16:04.957Z,1.12
2023-03-06T02:16:34.525Z,1.12
2023-03-06T02:16:53.023Z,1.12
2023-03-06T02:17:25.686Z,1.12
2023-03-06T02:17:42.203Z,1.12
2023-03-06T02:18:12.898Z,1.12
2023-03-06T02:18:34.430Z,1.12
2023-03-06T02:19:00.900Z,1.12
2023-03-06T02:19:33.642Z,1.12
2023-03-06T02:20:05.154Z,1.12
2023-03-06T02:20:35.352Z,1.12
2023-03-06T02:20:52.982Z,1.12
2023-03-06T02:21:24.982Z,1.12
2023-03-06T02:21:42.858Z,1.07
2023-03-06T02:22:12.910Z,1.07
2023-03-06T02:22:34.432Z,1.07
2023-03-06T02:23:00.904Z,1.07
2023-03-06T02:23:32.979Z,1.07
2023-03-06T02:24:05.604Z,.91
2023-03-06T02:24:34.474Z,.91
2023-03-06T02:24:52.887Z,.91
2023-03-06T02:25:25.030Z,.91
2023-03-06T02:25:42.083Z,.91
2023-03-06T02:26:13.603Z,.96
2023-03-06T02:26:34.428Z,.96
2023-03-06T02:27:00.943Z,.96
2023-03-06T02:27:32.945Z,.91
2023-03-06T02:28:04.979Z,.91
2023-03-06T02:28:35.262Z,.91
2023-03-06T02:28:52.924Z,.91
2023-03-06T02:29:24.947Z,.91
2023-03-06T02:29:42.834Z,.91
2023-03-06T02:30:13.158Z,.91
2023-03-06T02:30:34.518Z,.96
2023-03-06T02:31:01.029Z,.96
2023-03-06T02:31:32.896Z,.91
2023-03-06T02:32:05.707Z,.91
2023-03-06T02:32:34.487Z,.91
2023-03-06T02:32:52.930Z,.91
2023-03-06T02:33:24.961Z,.91
2023-03-06T02:33:42.109Z,.91
2023-03-06T02:34:13.748Z,.91
2023-03-06T02:34:34.421Z,.91
2023-03-06T02:35:01.042Z,.91
2023-03-06T02:35:32.993Z,.91
2023-03-06T02:36:04.984Z,.91
2023-03-06T02:36:34.817Z,.91
2023-03-06T02:36:52.930Z,.91
2023-03-06T02:37:25.661Z,.91
2023-03-06T02:37:42.217Z,.91
2023-03-06T02:38:12.915Z,.91
2023-03-06T02:38:34.426Z,.91
2023-03-06T02:39:00.982Z,.91
2023-03-06T02:39:34.145Z,.91
2023-03-06T02:40:05.052Z,.91
2023-03-06T02:40:35.373Z,.91
2023-03-06T02:40:53.112Z,.91
2023-03-06T02:41:25.020Z,.91
2023-03-06T02:41:42.822Z,.91
2023-03-06T02:42:12.896Z,.91
2023-03-06T02:42:34.490Z,.91
2023-03-06T02:43:00.976Z,.91
2023-03-06T02:43:32.922Z,.91
2023-03-06T02:44:05.886Z,.91
2023-03-06T02:44:34.425Z,.91
2023-03-06T02:44:52.957Z,.91
2023-03-06T02:45:25.144Z,.91
2023-03-06T02:45:42.381Z,.91
2023-03-06T02:46:13.862Z,.91
2023-03-06T02:46:34.676Z,.91
2023-03-06T02:47:00.995Z,.91
2023-03-06T02:47:32.962Z,1.07
2023-03-06T02:48:04.977Z,1.07
2023-03-06T02:48:34.440Z,1.07
2023-03-06T02:48:52.948Z,1.07
2023-03-06T02:49:26.583Z,1.07
2023-03-06T02:49:42.247Z,1.07
2023-03-06T02:50:13.077Z,1.07
2023-03-06T02:50:34.945Z,1.07
2023-03-06T02:51:00.956Z,1.07
2023-03-06T02:51:33.705Z,1.07
2023-03-06T02:52:04.923Z,1.07
2023-03-06T02:52:35.241Z,1.07
2023-03-06T02:52:52.936Z,1.07
2023-03-06T02:53:24.992Z,1.07
2023-03-06T02:53:42.876Z,1.07
2023-03-06T02:54:12.941Z,1.07
2023-03-06T02:54:34.524Z,1.07
2023-03-06T02:55:01.106Z,1.07
2023-03-06T02:55:32.984Z,1.07
2023-03-06T02:56:05.824Z,1.07
2023-03-06T02:56:34.413Z,.96
2023-03-06T02:56:52.963Z,.96
2023-03-06T02:57:24.949Z,.96
2023-03-06T02:57:42.102Z,.96
2023-03-06T02:58:13.649Z,.96
2023-03-06T02:58:34.387Z,.96
2023-03-06T02:59:00.958Z,.96
2023-03-06T02:59:32.888Z,.96
2023-03-06T03:00:05.230Z,.96
2023-03-06T03:00:34.442Z,.96
2023-03-06T03:00:53.086Z,.96
2023-03-06T03:01:25.806Z,.96
2023-03-06T03:01:42.324Z,.96
2023-03-06T03:02:12.942Z,.96
2023-03-06T03:02:34.421Z,.96
2023-03-06T03:03:00.963Z,.96
2023-03-06T03:03:33.601Z,.96
2023-03-06T03:04:05.001Z,.96
2023-03-06T03:04:35.219Z,.96
2023-03-06T03:04:53.061Z,.96
2023-03-06T03:05:25.076Z,.96
2023-03-06T03:05:42.841Z,.96
2023-03-06T03:06:12.943Z,.96
2023-03-06T03:06:34.418Z,.96
2023-03-06T03:07:00.970Z,.96
2023-03-06T03:07:32.934Z,.96
2023-03-06T03:08:05.599Z,.96
2023-03-06T03:08:34.451Z,.96
2023-03-06T03:08:52.879Z,.96
2023-03-06T03:09:24.968Z,.96
2023-03-06T03:09:42.174Z,.96
2023-03-06T03:10:13.857Z,.96
2023-03-06T03:10:34.415Z,.96
2023-03-06T03:11:00.966Z,.96
2023-03-06T03:11:32.976Z,.96
2023-03-06T03:12:04.928Z,.96
2023-03-06T03:12:34.440Z,.96
2023-03-06T03:12:52.969Z,.96
2023-03-06T03:13:25.660Z,.96
2023-03-06T03:13:42.289Z,.96
2023-03-06T03:14:12.941Z,.96
2023-03-06T03:14:34.488Z,.96
2023-03-06T03:15:01.141Z,.96
2023-03-06T03:15:33.800Z,.96
2023-03-06T03:16:04.995Z,.96
2023-03-06T03:16:36.649Z,.96
2023-03-06T03:16:52.997Z,.96
2023-03-06T03:17:24.955Z,.96
2023-03-06T03:17:42.762Z,.96
2023-03-06T03:18:12.947Z,.96
2023-03-06T03:18:34.487Z,.96
2023-03-06T03:19:01.038Z,.96
2023-03-06T03:19:33.056Z,.96
2023-03-06T03:20:05.880Z,.96
2023-03-06T03:20:35.250Z,.96
2023-03-06T03:20:53.065Z,.96
2023-03-06T03:21:24.895Z,.96
2023-03-06T03:21:42.088Z,.96
2023-03-06T03:22:13.724Z,.96
2023-03-06T03:22:34.418Z,.96
2023-03-06T03:23:00.971Z,.96
2023-03-06T03:23:32.978Z,.96
2023-03-06T03:24:04.974Z,.96
2023-03-06T03:24:34.438Z,.96
2023-03-06T03:24:53.087Z,.96
2023-03-06T03:25:25.935Z,.96
2023-03-06T03:25:42.237Z,.96
2023-03-06T03:26:12.910Z,.96
2023-03-06T03:26:34.437Z,.96
2023-03-06T03:27:00.926Z,.96
2023-03-06T03:27:34.371Z,.96
2023-03-06T03:28:04.946Z,.96
2023-03-06T03:28:35.305Z,.96
2023-03-06T03:28:53.006Z,.96
2023-03-06T03:29:24.964Z,.96
2023-03-06T03:29:42.787Z,.96
2023-03-06T03:30:13.209Z,.96
2023-03-06T03:30:34.443Z,.96
2023-03-06T03:31:00.998Z,.96
2023-03-06T03:31:32.996Z,.96
2023-03-06T03:32:05.741Z,.96
2023-03-06T03:32:34.570Z,.96
2023-03-06T03:32:52.981Z,.96
2023-03-06T03:33:25.013Z,.96
2023-03-06T03:33:42.199Z,.96
2023-03-06T03:34:13.664Z,.96
2023-03-06T03:34:34.490Z,.96
2023-03-06T03:35:01.278Z,.96
2023-03-06T03:35:32.926Z,.80
2023-03-06T03:36:04.977Z,.80
2023-03-06T03:36:34.431Z,.80
2023-03-06T03:36:52.926Z,.80
2023-03-06T03:37:25.764Z,.80
2023-03-06T03:37:42.330Z,.80
2023-03-06T03:38:12.990Z,.80
2023-03-06T03:38:34.457Z,.80
2023-03-06T03:39:00.949Z,.80
2023-03-06T03:39:33.681Z,.80
2023-03-06T03:40:05.086Z,.80
2023-03-06T03:40:35.226Z,.80
2023-03-06T03:40:53.478Z,.80
2023-03-06T03:41:24.985Z,.80
2023-03-06T03:41:42.848Z,.80
2023-03-06T03:42:12.925Z,.80
2023-03-06T03:42:34.441Z,.80
2023-03-06T03:43:00.983Z,.80
2023-03-06T03:43:32.955Z,.80
2023-03-06T03:44:05.828Z,.80
2023-03-06T03:44:34.453Z,.80
2023-03-06T03:44:52.937Z,.80
2023-03-06T03:45:25.141Z,.80
2023-03-06T03:45:42.191Z,.80
2023-03-06T03:46:13.727Z,.80
2023-03-06T03:46:34.482Z,.80
2023-03-06T03:47:00.992Z,.80
2023-03-06T03:47:32.946Z,.80
2023-03-06T03:48:04.942Z,.80
2023-03-06T03:48:34.515Z,.80
2023-03-06T03:48:53.015Z,.80
2023-03-06T03:49:25.796Z,.80
2023-03-06T03:49:42.348Z,.80
2023-03-06T03:50:13.061Z,.80
2023-03-06T03:50:34.958Z,.80
2023-03-06T03:51:00.984Z,.80
2023-03-06T03:51:33.727Z,.80
2023-03-06T03:52:04.961Z,.80
2023-03-06T03:52:35.151Z,.80
2023-03-06T03:52:52.984Z,.80
2023-03-06T03:53:24.950Z,.80
2023-03-06T03:53:42.864Z,.80
2023-03-06T03:54:12.968Z,.80
2023-03-06T03:54:34.933Z,.80
2023-03-06T03:55:01.089Z,.80
2023-03-06T03:55:32.951Z,.80
2023-03-06T03:56:05.757Z,.80
2023-03-06T03:56:34.928Z,.80
2023-03-06T03:56:52.961Z,.80
2023-03-06T03:57:24.945Z,.80
2023-03-06T03:57:42.197Z,.80
2023-03-06T03:58:13.736Z,.80
2023-03-06T03:58:34.446Z,.80
2023-03-06T03:59:00.956Z,.69
2023-03-06T03:59:33.023Z,.69
2023-03-06T04:00:05.421Z,.69
2023-03-06T04:00:34.431Z,.69
2023-03-06T04:00:53.419Z,.69
2023-03-06T04:01:25.648Z,.69
2023-03-06T04:01:57.882Z,.85
2023-03-06T04:02:29.722Z,.85
2023-03-06T04:03:00.933Z,.85
2023-03-06T04:03:33.744Z,.85
2023-03-06T04:04:04.954Z,.85
2023-03-06T04:04:35.149Z,.85
2023-03-06T04:04:52.994Z,.85
2023-03-06T04:05:25.088Z,.85
2023-03-06T04:05:42.877Z,.85
2023-03-06T04:06:12.920Z,.85
2023-03-06T04:06:34.454Z,.85
2023-03-06T04:07:01.006Z,.85
2023-03-06T04:07:33.441Z,.85
2023-03-06T04:08:05.658Z,.85
2023-03-06T04:08:34.458Z,.85
2023-03-06T04:08:52.959Z,.85
2023-03-06T04:09:24.954Z,.85
2023-03-06T04:09:42.154Z,.85
2023-03-06T04:10:13.817Z,.73
2023-03-06T04:10:34.510Z,.73
2023-03-06T04:11:00.966Z,.73
2023-03-06T04:11:33.038Z,.73
2023-03-06T04:12:04.931Z,.73
2023-03-06T04:12:35.147Z,.73
2023-03-06T04:12:52.995Z,.73
2023-03-06T04:13:25.718Z,.73
2023-03-06T04:13:57.884Z,.73
2023-03-06T04:14:35.235Z,.73
2023-03-06T04:15:01.186Z,.73
2023-03-06T04:15:33.042Z,.73
2023-03-06T04:16:04.964Z,.73
2023-03-06T04:16:34.453Z,.73
2023-03-06T04:16:53.671Z,.73
2023-03-06T04:17:24.929Z,.73
2023-03-06T04:17:42.160Z,.73
2023-03-06T04:18:13.068Z,.73
2023-03-06T04:18:34.422Z,.73
2023-03-06T04:19:00.978Z,.73
2023-03-06T04:19:33.049Z,.73
2023-03-06T04:20:05.909Z,.73
2023-03-06T04:20:34.847Z,.73
2023-03-06T04:20:53.120Z,.73
2023-03-06T04:21:24.946Z,.73
2023-03-06T04:21:42.235Z,.73
2023-03-06T04:22:13.782Z,.73
2023-03-06T04:22:34.924Z,.73
2023-03-06T04:23:01.023Z,.87
2023-03-06T04:23:33.070Z,.73
2023-03-06T04:24:05.005Z,.73
2023-03-06T04:24:34.427Z,.73
2023-03-06T04:24:52.941Z,.73
2023-03-06T04:25:25.915Z,.73
2023-03-06T04:25:42.346Z,.73
2023-03-06T04:26:13.000Z,.87
2023-03-06T04:26:34.463Z,.87
2023-03-06T04:27:00.978Z,.87
2023-03-06T04:27:33.659Z,.73
2023-03-06T04:28:04.946Z,.87
2023-03-06T04:28:35.149Z,.87
2023-03-06T04:28:52.997Z,.87
2023-03-06T04:29:24.991Z,.87
2023-03-06T04:29:42.915Z,.87
2023-03-06T04:30:13.158Z,.73
2023-03-06T04:30:34.448Z,.73
2023-03-06T04:31:01.029Z,.73
2023-03-06T04:31:33.060Z,.73
2023-03-06T04:32:05.676Z,.73
2023-03-06T04:32:34.462Z,.73
2023-03-06T04:32:52.977Z,.73
2023-03-06T04:33:25.056Z,.73
2023-03-06T04:33:42.239Z,.73
2023-03-06T04:34:13.798Z,.73
2023-03-06T04:34:34.416Z,.73
2023-03-06T04:35:01.146Z,.73
2023-03-06T04:35:32.942Z,.73
2023-03-06T04:36:04.973Z,.73
2023-03-06T04:36:34.476Z,.73
2023-03-06T04:36:52.980Z,.73
2023-03-06T04:37:25.826Z,.73
2023-03-06T04:37:42.324Z,.73
2023-03-06T04:38:12.945Z,.73
2023-03-06T04:38:34.510Z,.73
2023-03-06T04:39:01.057Z,.73
2023-03-06T04:39:33.776Z,.73
2023-03-06T04:40:05.127Z,.73
2023-03-06T04:40:35.323Z,.73
2023-03-06T04:40:53.395Z,.73
2023-03-06T04:41:24.956Z,.73
2023-03-06T04:41:42.916Z,.73
2023-03-06T04:42:12.990Z,.73
2023-03-06T04:42:34.449Z,.73
2023-03-06T04:43:00.972Z,.73
2023-03-06T04:43:33.012Z,.73
2023-03-06T04:44:05.762Z,.73
2023-03-06T04:44:35.066Z,.73
2023-03-06T04:44:52.993Z,.85
2023-03-06T04:45:25.239Z,.85
2023-03-06T04:45:42.294Z,.85
2023-03-06T04:46:13.788Z,.85
2023-03-06T04:46:34.484Z,.85
2023-03-06T04:47:01.036Z,.85
2023-03-06T04:47:33.530Z,.85
2023-03-06T04:48:04.969Z,.73
2023-03-06T04:48:34.432Z,.73
2023-03-06T04:48:52.932Z,.73
2023-03-06T04:49:26.068Z,.73
2023-03-06T04:49:57.567Z,.73
2023-03-06T04:50:30.000Z,.73
2023-03-06T04:51:01.047Z,.73
2023-03-06T04:51:33.786Z,.73
2023-03-06T04:52:04.977Z,.73
2023-03-06T04:52:36.271Z,.85
2023-03-06T04:53:08.567Z,.85
2023-03-06T04:53:24.969Z,.85
2023-03-06T04:53:43.182Z,.85
2023-03-06T04:54:29.009Z,.85
2023-03-06T04:55:01.113Z,.85
2023-03-06T04:55:33.020Z,.85
2023-03-06T04:56:05.034Z,.69
2023-03-06T04:56:35.170Z,.69
2023-03-06T04:56:53.831Z,.69
2023-03-06T04:57:24.929Z,.69
2023-03-06T04:57:42.171Z,.69
2023-03-06T04:58:13.844Z,.69
2023-03-06T04:58:34.452Z,.69
2023-03-06T04:59:01.140Z,.69
2023-03-06T04:59:33.040Z,.69
2023-03-06T05:00:05.280Z,.69
2023-03-06T05:00:34.465Z,.69
2023-03-06T05:00:53.236Z,.69
2023-03-06T05:01:25.832Z,.69
2023-03-06T05:01:42.324Z,.69
2023-03-06T05:02:12.994Z,.69
2023-03-06T05:02:34.436Z,.69
2023-03-06T05:03:01.047Z,.69
2023-03-06T05:03:33.910Z,.69
2023-03-06T05:04:05.014Z,.69
2023-03-06T05:04:35.273Z,.69
2023-03-06T05:05:09.212Z,.69
2023-03-06T05:05:34.542Z,.69
2023-03-06T05:05:57.189Z,.69
2023-03-06T05:06:28.997Z,.69
2023-03-06T05:07:01.803Z,.69
2023-03-06T05:07:33.024Z,.69
2023-03-06T05:08:05.809Z,.69
2023-03-06T05:08:34.492Z,.69
2023-03-06T05:08:53.037Z,.69
2023-03-06T05:09:24.962Z,.69
2023-03-06T05:09:42.207Z,.69
2023-03-06T05:10:13.902Z,.69
2023-03-06T05:10:34.427Z,.69
2023-03-06T05:11:01.008Z,.69
2023-03-06T05:11:33.017Z,.69
2023-03-06T05:12:05.013Z,.69
2023-03-06T05:12:34.453Z,.69
2023-03-06T05:12:53.005Z,.69
2023-03-06T05:13:25.704Z,.69
2023-03-06T05:13:57.893Z,.69
2023-03-06T05:14:29.814Z,.69
2023-03-06T05:15:01.166Z,.69
2023-03-06T05:15:33.781Z,.69
2023-03-06T05:16:05.051Z,.69
2023-03-06T05:16:35.380Z,.69
2023-03-06T05:16:53.159Z,.69
2023-03-06T05:17:25.033Z,.69
2023-03-06T05:17:42.915Z,.69
2023-03-06T05:18:12.995Z,.69
2023-03-06T05:18:34.429Z,.69
2023-03-06T05:19:01.047Z,.69
2023-03-06T05:19:33.056Z,.69
2023-03-06T05:20:05.941Z,.69
2023-03-06T05:20:34.429Z,.69
2023-03-06T05:20:53.129Z,.69
2023-03-06T05:21:25.090Z,.69
2023-03-06T05:21:42.292Z,.69
2023-03-06T05:22:13.704Z,.69
2023-03-06T05:22:34.434Z,.69
2023-03-06T05:23:00.998Z,.69
2023-03-06T05:23:33.436Z,.69
2023-03-06T05:24:05.051Z,.69
2023-03-06T05:24:35.255Z,.69
2023-03-06T05:24:53.090Z,.69
2023-03-06T05:25:25.147Z,.69
2023-03-06T05:25:42.913Z,.69
2023-03-06T05:26:12.989Z,.69
2023-03-06T05:26:34.435Z,.69
2023-03-06T05:27:01.006Z,.69
2023-03-06T05:27:33.000Z,.69
2023-03-06T05:28:05.760Z,.69
2023-03-06T05:28:34.454Z,.69
2023-03-06T05:28:53.016Z,.69
2023-03-06T05:29:24.954Z,.69
2023-03-06T05:29:42.314Z,.69
2023-03-06T05:30:14.016Z,.54
2023-03-06T05:30:34.444Z,.54
2023-03-06T05:31:03.265Z,.54
2023-03-06T05:31:33.077Z,.54
2023-03-06T05:32:05.160Z,.54
2023-03-06T05:32:35.707Z,.69
2023-03-06T05:32:53.205Z,.54
2023-03-06T05:33:25.785Z,.54
2023-03-06T05:33:42.269Z,.54
2023-03-06T05:34:12.974Z,.42
2023-03-06T05:34:34.436Z,.42
2023-03-06T05:35:01.174Z,.42
2023-03-06T05:35:33.876Z,.42
2023-03-06T05:36:05.000Z,.42
2023-03-06T05:36:35.159Z,.42
2023-03-06T05:36:53.024Z,.54
2023-03-06T05:37:24.986Z,.54
2023-03-06T05:37:43.211Z,.54
2023-03-06T05:38:13.006Z,.42
2023-03-06T05:38:34.485Z,.42
2023-03-06T05:39:01.032Z,.42
2023-03-06T05:39:33.009Z,.42
2023-03-06T05:40:05.973Z,.42
2023-03-06T05:40:34.466Z,.42
2023-03-06T05:40:53.183Z,.42
2023-03-06T05:41:25.003Z,.42
2023-03-06T05:41:42.269Z,.42
2023-03-06T05:42:13.844Z,.42
2023-03-06T05:42:34.719Z,.42
2023-03-06T05:43:01.042Z,.42
2023-03-06T05:43:33.696Z,.42
2023-03-06T05:44:05.187Z,.42
2023-03-06T05:44:34.719Z,.42
2023-03-06T05:44:53.028Z,.42
2023-03-06T05:45:26.104Z,.42
2023-03-06T05:45:42.436Z,.42
2023-03-06T05:46:13.138Z,.42
2023-03-06T05:46:34.450Z,.42
2023-03-06T05:47:01.039Z,.42
2023-03-06T05:47:33.849Z,.42
2023-03-06T05:48:05.026Z,.42
2023-03-06T05:48:35.152Z,.42
2023-03-06T05:48:53.030Z,.42
2023-03-06T05:49:25.013Z,.42
2023-03-06T05:49:42.975Z,.42
2023-03-06T05:50:13.155Z,.42
2023-03-06T05:50:34.468Z,.42
2023-03-06T05:51:01.066Z,.42
2023-03-06T05:51:33.041Z,.42
2023-03-06T05:52:05.903Z,.42
2023-03-06T05:52:34.456Z,.42
2023-03-06T05:52:52.978Z,.42
2023-03-06T05:53:24.981Z,.42
2023-03-06T05:53:42.283Z,.42
2023-03-06T05:54:13.927Z,.42
2023-03-06T05:54:34.472Z,.42
2023-03-06T05:55:01.220Z,.42
2023-03-06T05:55:33.013Z,.42
2023-03-06T05:56:05.004Z,.42
2023-03-06T05:56:34.544Z,.42
2023-03-06T05:56:53.086Z,.42
2023-03-06T05:57:25.783Z,.42
2023-03-06T05:57:57.942Z,.42
2023-03-06T05:58:29.855Z,.42
2023-03-06T05:59:01.099Z,.42
2023-03-06T05:59:33.872Z,.42
2023-03-06T06:00:05.932Z,.42
2023-03-06T06:00:35.373Z,.42
2023-03-06T06:00:53.389Z,.42
2023-03-06T06:01:25.025Z,.42
2023-03-06T06:01:43.100Z,.42
2023-03-06T06:02:13.135Z,.42
2023-03-06T06:02:34.582Z,.42
2023-03-06T06:03:01.092Z,.42
2023-03-06T06:03:33.079Z,.42
2023-03-06T06:04:05.832Z,.42
2023-03-06T06:04:34.465Z,.42
2023-03-06T06:05:26.349Z,.42
2023-03-06T06:05:42.473Z,.42
2023-03-06T06:06:13.025Z,.42
2023-03-06T06:06:34.481Z,.42
2023-03-06T06:07:01.087Z,.42
2023-03-06T06:07:34.056Z,.42
2023-03-06T06:08:05.040Z,.42
2023-03-06T06:08:35.559Z,.42